Time;durP1;ratioP1;P1;durP2;ratioP2;P2;SDS_P1;SDS_P2;PMS_P1;PMS_P2;Temp;Humidity;BMP_temperature;BMP_pressure;BME280_temperature;BME280_humidity;BME280_pressure;Samples;Min_cycle;Max_cycle;Signal;HPM_P1;HPM_P2
2021/09/18 00:02:04;;;;;;;6.00;5.50;;;;;;;15.58;71.31;100338.25;5005080;28;20494;-78
2021/09/18 00:04:29;;;;;;;5.97;5.53;;;;;;;15.58;71.75;100340.97;5012652;28;20397;-78
2021/09/18 00:06:54;;;;;;;8.90;5.40;;;;;;;15.56;71.39;100345.91;5010389;28;20445;-77
2021/09/18 00:09:20;;;;;;;13.00;5.60;;;;;;;15.56;71.41;100340.47;5011653;28;20404;-78
2021/09/18 00:11:45;;;;;;;6.90;5.20;;;;;;;15.56;71.21;100335.00;5005186;28;20423;-77
2021/09/18 00:14:11;;;;;;;5.28;4.78;;;;;;;15.55;71.15;100330.63;5013647;28;20476;-78
2021/09/18 00:16:36;;;;;;;6.20;5.60;;;;;;;15.55;71.63;100332.53;5011220;28;20783;-77
2021/09/18 00:19:01;;;;;;;8.27;5.80;;;;;;;15.56;71.58;100336.91;5019826;28;20803;-77
2021/09/18 00:21:27;;;;;;;8.03;5.30;;;;;;;15.55;71.68;100338.00;5011931;28;20996;-78
2021/09/18 00:23:54;;;;;;;6.00;5.03;;;;;;;15.54;71.70;100339.91;5012348;28;20397;-77
2021/09/18 00:26:20;;;;;;;6.82;5.30;;;;;;;15.55;71.94;100332.53;5010918;28;20402;-77
2021/09/18 00:28:45;;;;;;;5.60;5.10;;;;;;;15.49;71.68;100330.91;5013130;28;20405;-77
2021/09/18 00:31:10;;;;;;;5.37;4.87;;;;;;;15.50;72.12;100336.13;5006494;28;20416;-78
2021/09/18 00:33:35;;;;;;;5.20;4.80;;;;;;;15.52;71.76;100330.34;5012983;28;20456;-77
2021/09/18 00:36:01;;;;;;;5.35;4.95;;;;;;;15.54;71.82;100330.91;5011883;28;20412;-77
2021/09/18 00:38:26;;;;;;;6.20;5.60;;;;;;;15.54;71.33;100331.69;5011310;28;20407;-77
2021/09/18 00:40:51;;;;;;;7.27;5.40;;;;;;;15.52;70.80;100333.09;5011615;28;20416;-77
2021/09/18 00:43:16;;;;;;;6.13;5.50;;;;;;;15.53;70.98;100332.81;5011961;28;20437;-77
2021/09/18 00:45:42;;;;;;;7.97;5.40;;;;;;;15.51;71.10;100323.28;5012243;28;20823;-77
2021/09/18 00:48:07;;;;;;;6.53;5.10;;;;;;;15.51;70.95;100331.47;4997677;28;20412;-77
2021/09/18 00:50:33;;;;;;;5.43;5.03;;;;;;;15.48;70.75;100335.56;4993785;28;20804;-77
2021/09/18 00:52:59;;;;;;;6.38;4.78;;;;;;;15.46;70.39;100328.72;4992027;28;20393;-78
2021/09/18 00:55:25;;;;;;;6.80;4.68;;;;;;;15.41;69.88;100332.28;5011373;28;20405;-77
2021/09/18 00:57:50;;;;;;;5.30;4.80;;;;;;;15.36;69.52;100332.31;5011405;28;20408;-77
2021/09/18 01:00:16;;;;;;;5.22;4.72;;;;;;;15.31;69.79;100334.25;5011715;28;20839;-77
2021/09/18 01:02:42;;;;;;;5.43;4.83;;;;;;;15.27;69.72;100338.63;5007209;28;20482;-78
2021/09/18 01:05:08;;;;;;;4.93;4.63;;;;;;;15.22;70.03;100334.00;5008932;28;20872;-77
2021/09/18 01:07:38;;;;;;;5.60;4.80;;;;;;;15.19;70.92;100339.19;4993693;28;20400;-78
2021/09/18 01:10:04;;;;;;;5.85;4.68;;;;;;;15.16;70.66;100340.56;4994217;28;20915;-77
2021/09/18 01:12:30;;;;;;;5.20;4.70;;;;;;;15.16;71.01;100332.38;5009491;28;20468;-77
2021/09/18 01:14:56;;;;;;;5.78;5.20;;;;;;;15.15;70.81;100338.94;5010284;28;21011;-78
2021/09/18 01:17:21;;;;;;;6.00;4.83;;;;;;;15.15;71.05;100327.22;5008799;28;20413;-77
2021/09/18 01:19:46;;;;;;;5.47;5.00;;;;;;;15.16;70.86;100326.94;5010780;28;20484;-77
2021/09/18 01:22:14;;;;;;;5.10;4.70;;;;;;;15.16;71.64;100326.94;5010663;28;20400;-77
2021/09/18 01:24:39;;;;;;;5.78;5.28;;;;;;;15.16;71.33;100329.66;5010719;28;20432;-77
2021/09/18 01:27:04;;;;;;;6.47;5.83;;;;;;;15.16;71.24;100328.84;4997438;28;20443;-77
2021/09/18 01:29:30;;;;;;;7.73;5.57;;;;;;;15.16;71.78;100329.66;5011613;28;20746;-77
2021/09/18 01:31:57;;;;;;;6.88;5.63;;;;;;;15.16;71.53;100326.94;4991986;28;20949;-78
2021/09/18 01:34:24;;;;;;;6.30;5.70;;;;;;;15.14;71.78;100325.56;4993533;28;20412;-78
2021/09/18 01:36:50;;;;;;;5.63;5.07;;;;;;;15.14;71.41;100331.03;5011399;28;20408;-77
2021/09/18 01:39:17;;;;;;;6.07;5.47;;;;;;;15.11;71.67;100316.03;5011286;28;20892;-77
2021/09/18 01:41:45;;;;;;;13.00;6.10;;;;;;;15.09;71.83;100323.66;5007543;28;20421;-77
2021/09/18 01:44:15;;;;;;;8.77;5.22;;;;;;;15.06;71.44;100324.22;4993331;28;20397;-78
2021/09/18 01:46:40;;;;;;;5.18;4.70;;;;;;;15.03;70.68;100314.69;5010473;28;20413;-77
2021/09/18 01:49:17;;;;;;;7.13;5.28;;;;;;;15.02;70.70;100313.03;5013789;28;20408;-77
2021/09/18 01:51:53;;;;;;;5.68;4.97;;;;;;;14.98;71.18;100322.09;5010919;28;20416;-77
2021/09/18 01:54:19;;;;;;;5.88;4.93;;;;;;;14.97;70.62;100323.16;4994870;28;20748;-78
2021/09/18 01:56:47;;;;;;;6.60;6.00;;;;;;;14.93;70.91;100314.72;5006116;28;20413;-77
2021/09/18 01:59:12;;;;;;;6.53;5.07;;;;;;;14.90;70.54;100322.63;5009041;28;20408;-77
2021/09/18 02:01:38;;;;;;;5.90;5.13;;;;;;;14.87;71.24;100315.00;5011063;28;20409;-78
2021/09/18 02:04:03;;;;;;;5.07;4.78;;;;;;;14.87;71.04;100320.47;5010759;28;20737;-78
2021/09/18 02:06:28;;;;;;;8.83;5.40;;;;;;;14.86;70.31;100327.00;5010710;28;20405;-77
2021/09/18 02:08:54;;;;;;;5.60;4.97;;;;;;;14.84;70.76;100321.00;4995669;28;20493;-78
2021/09/18 02:11:19;;;;;;;5.13;4.57;;;;;;;14.79;70.58;100321.81;5011630;28;20427;-77
2021/09/18 02:13:44;;;;;;;6.07;4.67;;;;;;;14.76;70.25;100321.56;5010594;28;20401;-77
2021/09/18 02:16:10;;;;;;;7.23;4.80;;;;;;;14.71;69.98;100308.78;5010804;28;20405;-77
2021/09/18 02:18:35;;;;;;;7.40;5.00;;;;;;;14.67;70.44;100315.84;5010724;28;20412;-77
2021/09/18 02:21:00;;;;;;;6.17;4.77;;;;;;;14.67;70.82;100320.50;5008265;28;20416;-77
2021/09/18 02:23:25;;;;;;;5.83;4.70;;;;;;;14.64;70.81;100319.13;5009814;28;20421;-77
2021/09/18 02:25:51;;;;;;;4.90;4.30;;;;;;;14.63;70.36;100316.66;5010300;28;20424;-77
2021/09/18 02:28:16;;;;;;;5.40;4.50;;;;;;;14.63;69.88;100322.13;5006566;28;20404;-77
2021/09/18 02:30:41;;;;;;;7.23;4.37;;;;;;;14.61;69.63;100313.41;5011070;28;20860;-77
2021/09/18 02:33:07;;;;;;;5.07;4.07;;;;;;;14.59;69.80;100316.41;5010124;28;20401;-77
2021/09/18 02:35:33;;;;;;;4.33;4.03;;;;;;;14.52;70.17;100318.63;5013361;28;20974;-77
2021/09/18 02:38:00;;;;;;;6.10;5.50;;;;;;;14.41;70.59;100306.06;4995447;28;20408;-77
2021/09/18 02:40:27;;;;;;;7.53;4.82;;;;;;;14.36;70.81;100306.88;5001807;28;20406;-77
2021/09/18 02:42:55;;;;;;;5.68;5.10;;;;;;;14.39;71.07;100300.88;5015223;28;20400;-77
2021/09/18 02:45:21;;;;;;;6.13;5.63;;;;;;;14.43;71.66;100306.59;5011728;28;20400;-77
2021/09/18 02:47:48;;;;;;;6.83;6.23;;;;;;;14.45;72.12;100310.72;4995955;28;20892;-77
2021/09/18 02:50:16;;;;;;;6.43;5.82;;;;;;;14.48;71.90;100307.44;5014267;28;20791;-77
2021/09/18 02:52:41;;;;;;;6.32;5.82;;;;;;;14.48;71.64;100307.44;5012487;28;20397;-77
2021/09/18 02:55:07;;;;;;;6.27;5.70;;;;;;;14.50;71.34;100304.41;5012336;28;20404;-77
2021/09/18 02:57:33;;;;;;;8.07;6.32;;;;;;;14.48;71.51;100312.06;4993937;28;20412;-77
2021/09/18 02:59:58;;;;;;;7.33;6.50;;;;;;;14.45;71.93;100310.72;5013134;28;20417;-78
2021/09/18 03:02:23;;;;;;;9.00;6.83;;;;;;;14.45;72.54;100305.25;5019843;28;20399;-77
2021/09/18 03:04:49;;;;;;;8.33;6.17;;;;;;;14.47;72.40;100303.06;5013888;28;20489;-78
2021/09/18 03:07:14;;;;;;;6.07;4.80;;;;;;;14.47;71.43;100307.69;5013016;28;20408;-77
2021/09/18 03:09:39;;;;;;;5.73;4.87;;;;;;;14.43;70.97;100307.44;4996059;28;20441;-77
2021/09/18 03:12:05;;;;;;;5.27;4.80;;;;;;;14.42;70.25;100313.16;5013916;28;20445;-78
2021/09/18 03:14:30;;;;;;;5.20;4.80;;;;;;;14.35;69.85;100304.44;5013659;28;20675;-77
2021/09/18 03:16:56;;;;;;;9.03;4.87;;;;;;;14.24;69.81;100302.78;5011779;28;20963;-77
2021/09/18 03:19:21;;;;;;;5.53;4.60;;;;;;;14.14;70.09;100306.31;5013627;28;20404;-77
2021/09/18 03:21:46;;;;;;;6.53;4.37;;;;;;;14.08;70.38;100304.69;5012684;28;20934;-77
2021/09/18 03:24:13;;;;;;;5.90;4.57;;;;;;;14.01;70.31;100301.41;4995581;28;20408;-77
2021/09/18 03:26:40;;;;;;;5.57;4.77;;;;;;;13.99;70.49;100298.94;5018676;28;20413;-77
2021/09/18 03:29:06;;;;;;;8.53;4.47;;;;;;;13.95;70.56;100300.59;5012277;28;20779;-77
2021/09/18 03:31:31;;;;;;;7.63;4.90;;;;;;;13.92;70.35;100303.03;5013122;28;20405;-77
2021/09/18 03:33:56;;;;;;;5.50;4.63;;;;;;;13.84;70.63;100296.19;5013425;28;20409;-77
2021/09/18 03:36:21;;;;;;;8.23;4.80;;;;;;;13.85;70.94;100300.56;5011562;28;20666;-77
2021/09/18 03:38:47;;;;;;;6.47;4.80;;;;;;;13.89;70.88;100301.66;4995346;28;20409;-77
2021/09/18 03:41:12;;;;;;;6.67;5.73;;;;;;;13.89;70.98;100301.66;5013143;28;20421;-77
2021/09/18 03:43:37;;;;;;;7.47;5.57;;;;;;;13.89;70.72;100300.84;5014606;28;20392;-77
2021/09/18 03:46:03;;;;;;;6.53;5.80;;;;;;;13.88;71.00;100291.84;5013106;28;20574;-78
2021/09/18 03:48:28;;;;;;;6.73;5.83;;;;;;;13.88;70.93;100291.03;5012554;28;20401;-77
2021/09/18 03:50:53;;;;;;;5.68;5.10;;;;;;;13.84;71.49;100295.38;5017985;28;20389;-77
2021/09/18 03:53:19;;;;;;;5.70;5.10;;;;;;;13.83;71.53;100294.56;4995151;28;20416;-78
2021/09/18 03:55:44;;;;;;;8.33;5.63;;;;;;;13.81;71.85;100282.31;5012862;28;20404;-77
2021/09/18 03:58:09;;;;;;;5.67;5.13;;;;;;;13.81;71.53;100287.75;5011278;28;20409;-77
2021/09/18 04:00:35;;;;;;;5.93;5.40;;;;;;;13.82;72.00;100290.22;5011358;28;20420;-78
2021/09/18 04:03:00;;;;;;;9.37;5.90;;;;;;;13.81;72.36;100295.91;5012777;28;20855;-77
2021/09/18 04:05:25;;;;;;;6.40;5.90;;;;;;;13.79;71.99;100293.47;5012524;28;20926;-77
2021/09/18 04:07:50;;;;;;;7.33;5.53;;;;;;;13.82;72.10;100295.66;5012328;28;20401;-78
2021/09/18 04:10:16;;;;;;;6.00;5.47;;;;;;;13.84;72.05;100295.38;5010922;28;20772;-77
2021/09/18 04:12:41;;;;;;;7.85;5.38;;;;;;;13.84;71.75;100303.53;5012551;28;20405;-77
2021/09/18 04:15:07;;;;;;;5.53;5.03;;;;;;;13.81;72.28;100301.38;5009882;28;20467;-77
2021/09/18 04:17:32;;;;;;;7.40;6.70;;;;;;;13.80;72.31;100307.88;5012244;28;20458;-77
2021/09/18 04:19:57;;;;;;;7.88;5.40;;;;;;;13.83;71.69;100312.81;5012166;28;20405;-78
2021/09/18 04:22:23;;;;;;;5.70;5.20;;;;;;;13.83;71.76;100308.16;5011398;28;20401;-78
2021/09/18 04:24:48;;;;;;;5.20;4.83;;;;;;;13.83;71.58;100310.09;5010274;28;20809;-77
2021/09/18 04:27:13;;;;;;;7.13;5.73;;;;;;;13.84;71.71;100312.53;4992933;28;20924;-77
2021/09/18 04:29:39;;;;;;;7.07;6.30;;;;;;;13.84;71.35;100312.53;5016613;28;20407;-77
2021/09/18 04:32:04;;;;;;;7.53;6.83;;;;;;;13.85;71.84;100325.09;5014671;28;20757;-77
2021/09/18 04:34:30;;;;;;;8.65;7.75;;;;;;;13.85;73.00;100322.34;5014223;28;20435;-77
2021/09/18 04:36:56;;;;;;;8.97;8.07;;;;;;;13.90;73.31;100321.53;5009925;28;20888;-77
2021/09/18 04:39:22;;;;;;;8.90;8.02;;;;;;;13.93;73.76;100310.09;5012020;28;20409;-78
2021/09/18 04:41:47;;;;;;;8.10;7.45;;;;;;;13.94;73.57;100325.34;5011926;28;20939;-77
2021/09/18 04:44:13;;;;;;;6.73;6.10;;;;;;;13.96;72.95;100325.94;5009023;28;20926;-77
2021/09/18 04:46:38;;;;;;;5.25;4.88;;;;;;;13.94;71.80;100314.47;5008061;28;20470;-77
2021/09/18 04:49:03;;;;;;;9.53;5.13;;;;;;;13.88;71.05;100315.53;5023281;28;20824;-77
2021/09/18 04:51:31;;;;;;;5.43;4.93;;;;;;;13.82;70.76;100325.63;5012265;28;20412;-77
2021/09/18 04:53:56;;;;;;;6.60;4.13;;;;;;;13.75;70.29;100327.78;5010340;28;20470;-77
2021/09/18 04:56:21;;;;;;;4.85;4.55;;;;;;;13.69;70.09;100323.41;5011748;28;20400;-78
2021/09/18 04:58:47;;;;;;;6.00;4.30;;;;;;;13.62;70.06;100327.47;5009944;28;20955;-78
2021/09/18 05:01:12;;;;;;;6.10;4.60;;;;;;;13.56;69.85;100337.53;5011612;28;20491;-78
2021/09/18 05:03:37;;;;;;;5.77;4.47;;;;;;;13.47;70.07;100328.22;5012052;28;20484;-78
2021/09/18 05:06:02;;;;;;;6.40;4.90;;;;;;;13.37;70.35;100330.94;5007687;28;20780;-78
2021/09/18 05:08:27;;;;;;;7.75;5.10;;;;;;;13.31;70.91;100332.78;5011445;28;20417;-77
2021/09/18 05:10:53;;;;;;;5.77;4.63;;;;;;;13.31;70.83;100338.25;4989567;28;20421;-77
2021/09/18 05:13:18;;;;;;;5.03;4.53;;;;;;;13.30;70.98;100336.63;5010393;28;20873;-77
2021/09/18 05:15:43;;;;;;;5.30;4.50;;;;;;;13.28;71.08;100338.78;5010269;28;20409;-77
2021/09/18 05:18:09;;;;;;;9.37;4.70;;;;;;;13.32;71.08;100342.59;5010596;28;20455;-78
2021/09/18 05:20:34;;;;;;;6.17;4.83;;;;;;;13.33;71.11;100344.25;5006566;28;20425;-77
2021/09/18 05:22:59;;;;;;;5.27;4.77;;;;;;;13.34;71.97;100342.31;5009838;28;20401;-77
2021/09/18 05:25:25;;;;;;;7.47;4.90;;;;;;;13.37;71.43;100345.34;5011247;28;20814;-77
2021/09/18 05:27:50;;;;;;;4.60;4.20;;;;;;;13.42;71.10;100344.56;5010410;28;20401;-77
2021/09/18 05:30:15;;;;;;;10.07;4.78;;;;;;;13.45;70.97;100336.69;5009289;28;20759;-77
2021/09/18 05:32:41;;;;;;;7.20;4.80;;;;;;;13.46;70.49;100342.94;4991188;28;20409;-77
2021/09/18 05:35:07;;;;;;;8.50;5.07;;;;;;;13.45;70.12;100341.28;5010192;28;20496;-77
2021/09/18 05:37:32;;;;;;;6.22;5.43;;;;;;;13.44;70.47;100343.19;5007457;28;20447;-77
2021/09/18 05:39:58;;;;;;;10.52;5.85;;;;;;;13.44;70.53;100348.63;5006340;28;20420;-77
2021/09/18 05:42:23;;;;;;;7.63;5.60;;;;;;;13.44;71.11;100345.09;5008442;28;20412;-78
2021/09/18 05:44:48;;;;;;;6.75;5.55;;;;;;;13.46;70.99;100353.84;5007650;28;20401;-77
2021/09/18 05:47:13;;;;;;;6.23;5.67;;;;;;;13.47;70.85;100353.53;5010251;28;20397;-77
2021/09/18 05:49:39;;;;;;;6.10;5.43;;;;;;;13.48;71.68;100347.03;5005255;28;20412;-77
2021/09/18 05:52:04;;;;;;;6.93;5.90;;;;;;;13.52;71.99;100359.03;5011328;28;20431;-77
2021/09/18 05:54:30;;;;;;;7.03;5.30;;;;;;;13.53;72.25;100352.47;5013207;28;20899;-77
2021/09/18 05:56:55;;;;;;;6.73;5.20;;;;;;;13.60;71.82;100351.44;5015453;28;20426;-77
2021/09/18 05:59:21;;;;;;;7.97;6.35;;;;;;;13.71;71.85;100356.63;5013902;28;20503;-77
2021/09/18 06:01:46;;;;;;;7.22;5.43;;;;;;;13.78;72.10;100357.19;5010038;28;20418;-77
2021/09/18 06:04:12;;;;;;;17.57;6.13;;;;;;;13.86;71.81;100358.59;4999594;28;20424;-77
2021/09/18 06:06:37;;;;;;;9.40;4.93;;;;;;;13.94;72.03;100356.16;5005372;28;20420;-77
2021/09/18 06:09:03;;;;;;;11.20;5.10;;;;;;;14.06;71.63;100353.19;5006032;28;20494;-77
2021/09/18 06:11:28;;;;;;;5.93;4.93;;;;;;;14.17;71.42;100351.28;5010790;28;20515;-77
2021/09/18 06:13:53;;;;;;;7.00;4.80;;;;;;;14.25;71.15;100356.19;5007221;28;20525;-77
2021/09/18 06:16:19;;;;;;;7.77;4.90;;;;;;;14.32;71.11;100352.13;4993764;28;20430;-77
2021/09/18 06:18:44;;;;;;;7.63;5.07;;;;;;;14.35;71.05;100356.25;5008767;28;20407;-77
2021/09/18 06:21:10;;;;;;;5.25;4.82;;;;;;;14.36;70.97;100360.59;5007174;28;20455;-77
2021/09/18 06:23:37;;;;;;;6.80;5.60;;;;;;;14.38;71.56;100351.06;5007956;28;20490;-76
2021/09/18 06:26:04;;;;;;;6.90;5.60;;;;;;;14.42;71.44;100360.31;5009368;28;20477;-76
2021/09/18 06:28:29;;;;;;;5.55;5.10;;;;;;;14.48;71.31;100361.16;5006977;28;20741;-77
2021/09/18 06:30:55;;;;;;;8.50;5.17;;;;;;;14.53;71.03;100366.59;5004129;28;20423;-77
2021/09/18 06:33:20;;;;;;;6.20;5.57;;;;;;;14.59;71.48;100368.22;5005545;28;20442;-78
2021/09/18 06:35:45;;;;;;;6.17;5.70;;;;;;;14.71;71.10;100367.94;5002568;28;20404;-77
2021/09/18 06:38:11;;;;;;;6.95;5.68;;;;;;;14.65;71.03;100378.06;5020580;28;20407;-77
2021/09/18 06:40:36;;;;;;;7.93;5.83;;;;;;;14.40;72.08;100367.94;5003849;28;20965;-78
2021/09/18 06:43:01;;;;;;;7.35;5.80;;;;;;;14.32;72.49;100381.28;5021710;28;20439;-76
2021/09/18 06:45:28;;;;;;;7.60;6.90;;;;;;;14.26;72.83;100376.94;5010884;28;22698;-81
2021/09/18 06:47:57;;;;;;;6.70;6.10;;;;;;;14.30;72.84;100378.00;5019246;28;20476;-76
2021/09/18 06:50:22;;;;;;;7.35;6.75;;;;;;;14.31;72.91;100383.19;5000258;28;20744;-77
2021/09/18 06:52:47;;;;;;;6.77;6.17;;;;;;;14.36;73.08;100376.94;5004107;28;20419;-77
2021/09/18 06:55:12;;;;;;;8.97;7.17;;;;;;;14.40;73.55;100378.84;5009216;28;20926;-78
2021/09/18 06:57:38;;;;;;;6.77;6.17;;;;;;;14.43;73.00;100381.03;5005481;28;20419;-77
2021/09/18 07:00:05;;;;;;;8.18;7.03;;;;;;;14.47;73.58;100386.78;5008523;28;20741;-78
2021/09/18 07:02:31;;;;;;;6.65;6.05;;;;;;;14.50;73.48;100384.31;5013643;28;20408;-79
2021/09/18 07:04:56;;;;;;;7.10;5.90;;;;;;;14.48;72.95;100381.06;5013145;28;20873;-79
2021/09/18 07:07:21;;;;;;;7.07;6.40;;;;;;;14.47;72.98;100384.03;4993052;28;20949;-81
2021/09/18 07:09:47;;;;;;;8.80;6.87;;;;;;;14.50;73.48;100381.59;5000743;28;20469;-78
2021/09/18 07:12:12;;;;;;;6.83;6.30;;;;;;;14.61;73.08;100387.06;5002935;28;20550;-79
2021/09/18 07:14:37;;;;;;;8.27;7.10;;;;;;;14.65;73.19;100388.16;4987527;28;21109;-79
2021/09/18 07:17:03;;;;;;;6.90;6.00;;;;;;;14.70;73.30;100378.03;4983649;28;20417;-79
2021/09/18 07:19:28;;;;;;;8.23;6.10;;;;;;;14.72;72.56;100377.78;5004524;28;20413;-79
2021/09/18 07:21:53;;;;;;;8.50;5.67;;;;;;;14.71;73.38;100378.88;5007723;28;20451;-78
2021/09/18 07:24:19;;;;;;;6.87;6.27;;;;;;;14.73;73.57;100379.41;4990743;28;20417;-79
2021/09/18 07:26:45;;;;;;;6.60;6.00;;;;;;;14.78;72.95;100382.13;5009618;28;20400;-81
2021/09/18 07:29:10;;;;;;;5.95;5.43;;;;;;;14.82;73.58;100383.22;5002703;28;20448;-80
2021/09/18 07:31:35;;;;;;;5.77;5.27;;;;;;;14.86;73.29;100376.09;5018115;28;20416;-78
2021/09/18 07:34:01;;;;;;;13.17;5.70;;;;;;;14.95;73.35;100379.94;5019719;28;20429;-78
2021/09/18 07:36:26;;;;;;;5.47;4.97;;;;;;;15.01;72.94;100381.56;5021622;28;20401;-79
2021/09/18 07:38:51;;;;;;;5.50;5.10;;;;;;;15.08;73.08;100382.09;5002855;28;20419;-79
2021/09/18 07:41:16;;;;;;;6.73;4.70;;;;;;;15.17;72.38;100387.81;5019157;28;20415;-79
2021/09/18 07:43:43;;;;;;;6.20;5.03;;;;;;;15.20;71.80;100388.06;5018345;28;20423;-78
2021/09/18 07:46:09;;;;;;;5.00;4.47;;;;;;;15.26;72.20;100386.13;5014968;28;20409;-78
2021/09/18 07:48:34;;;;;;;4.80;4.25;;;;;;;15.33;72.18;100387.47;5003928;28;20419;-79
2021/09/18 07:51:00;;;;;;;5.03;4.57;;;;;;;15.39;72.41;100391.81;5007278;28;20424;-78
2021/09/18 07:53:27;;;;;;;4.93;4.45;;;;;;;15.42;72.35;100384.97;5006993;28;20451;-77
2021/09/18 07:55:52;;;;;;;7.75;4.80;;;;;;;15.48;72.29;100397.56;5013217;28;20392;-78
2021/09/18 07:58:18;;;;;;;5.10;4.30;;;;;;;15.53;72.19;100401.09;5020437;28;20416;-79
2021/09/18 08:00:45;;;;;;;4.82;4.32;;;;;;;15.56;71.91;100395.09;5021931;28;20909;-80
2021/09/18 08:03:11;;;;;;;4.57;4.13;;;;;;;15.61;72.29;100388.75;4999871;28;20512;-79
2021/09/18 08:05:37;;;;;;;4.57;4.28;;;;;;;15.66;72.26;100401.59;5006511;28;20479;-77
2021/09/18 08:08:02;;;;;;;5.28;4.53;;;;;;;15.68;72.13;100393.94;5001792;28;20402;-78
2021/09/18 08:10:28;;;;;;;5.55;4.30;;;;;;;15.74;71.97;100395.56;5012959;28;20413;-77
2021/09/18 08:12:54;;;;;;;5.93;4.50;;;;;;;15.81;72.24;100398.78;4993535;28;20424;-77
2021/09/18 08:15:19;;;;;;;4.40;4.20;;;;;;;15.85;72.16;100394.41;5005426;28;20507;-78
2021/09/18 08:17:46;;;;;;;5.00;4.50;;;;;;;15.90;71.96;100400.69;5005086;28;20419;-78
2021/09/18 08:20:13;;;;;;;4.20;4.00;;;;;;;15.96;71.56;100398.72;4987745;28;21303;-77
2021/09/18 08:22:39;;;;;;;5.50;4.13;;;;;;;15.99;71.42;100396.25;5005434;28;20804;-78
2021/09/18 08:25:06;;;;;;;7.43;4.53;;;;;;;16.08;71.54;100391.00;5006783;28;20412;-78
2021/09/18 08:27:31;;;;;;;4.57;4.18;;;;;;;16.17;71.18;100394.75;5005163;28;20404;-78
2021/09/18 08:29:56;;;;;;;5.95;4.15;;;;;;;16.21;70.54;100393.09;5003131;28;20428;-78
2021/09/18 08:32:22;;;;;;;4.00;3.80;;;;;;;16.31;70.31;100393.03;4988897;28;20800;-77
2021/09/18 08:34:47;;;;;;;4.13;3.80;;;;;;;16.40;70.52;100390.53;5001680;28;20417;-78
2021/09/18 08:37:12;;;;;;;4.77;4.17;;;;;;;16.47;70.55;100389.06;5004984;28;20414;-78
2021/09/18 08:39:38;;;;;;;4.53;3.77;;;;;;;16.52;70.28;100385.50;5008619;28;20440;-78
2021/09/18 08:42:04;;;;;;;5.85;3.70;;;;;;;16.57;70.01;100380.00;5005362;28;20421;-78
2021/09/18 08:44:31;;;;;;;4.55;3.90;;;;;;;16.64;69.94;100385.13;5004620;28;20474;-78
2021/09/18 08:46:58;;;;;;;5.32;3.60;;;;;;;16.70;70.11;100382.06;5006537;28;20420;-78
2021/09/18 08:49:26;;;;;;;4.53;4.10;;;;;;;16.80;69.89;100384.72;4987224;28;20832;-78
2021/09/18 08:51:51;;;;;;;4.95;4.40;;;;;;;16.86;70.01;100386.31;5004226;28;20408;-78
2021/09/18 08:54:16;;;;;;;4.90;4.50;;;;;;;16.97;69.96;100387.03;4985638;28;20949;-78
2021/09/18 08:56:42;;;;;;;5.82;4.90;;;;;;;17.04;69.36;100376.56;5006188;28;20518;-78
2021/09/18 08:59:07;;;;;;;5.60;5.00;;;;;;;17.12;69.66;100384.16;5005529;28;20631;-79
2021/09/18 09:01:35;;;;;;;6.43;5.33;;;;;;;17.16;69.42;100378.91;4986590;28;20417;-78
2021/09/18 09:04:04;;;;;;;5.38;4.88;;;;;;;17.22;69.40;100373.09;5004019;28;20546;-78
2021/09/18 09:06:50;;;;;;;5.82;4.45;;;;;;;17.31;68.84;100368.59;5002210;28;20424;-78
2021/09/18 09:09:16;;;;;;;5.35;4.15;;;;;;;17.42;69.17;100380.28;5003033;28;20416;-78
2021/09/18 09:11:49;;;;;;;4.40;3.95;;;;;;;17.53;68.08;100373.53;5003802;28;20784;-78
2021/09/18 09:14:15;;;;;;;4.35;4.00;;;;;;;17.63;67.46;100373.44;5005494;28;20420;-78
2021/09/18 09:16:59;;;;;;;4.70;4.30;;;;;;;17.77;67.23;100376.28;4991615;28;20413;-78
2021/09/18 09:19:29;;;;;;;4.63;4.22;;;;;;;17.87;67.14;100367.94;5011080;28;20470;-78
2021/09/18 09:21:59;;;;;;;3.90;3.70;;;;;;;18.02;67.23;100373.19;4997727;28;20910;-79
2021/09/18 09:24:24;;;;;;;5.43;3.60;;;;;;;18.16;66.23;100371.34;5012119;28;20451;-79
2021/09/18 09:27:09;;;;;;;4.33;3.70;;;;;;;18.32;66.07;100369.19;5004604;28;20413;-78
2021/09/18 09:29:49;;;;;;;10.60;3.72;;;;;;;18.50;65.52;100366.47;5011715;28;20891;-78
2021/09/18 09:32:24;;;;;;;3.60;3.30;;;;;;;18.69;65.12;100368.34;4992406;28;20420;-78
2021/09/18 09:34:53;;;;;;;3.30;3.10;;;;;;;18.87;63.64;100371.03;5003370;28;20405;-79
2021/09/18 09:37:20;;;;;;;10.73;3.15;;;;;;;19.09;61.96;100368.44;5010936;28;20888;-78
2021/09/18 09:39:53;;;;;;;3.03;2.83;;;;;;;19.35;61.05;100366.00;4993341;28;20405;-78
2021/09/18 09:42:30;;;;;;;2.70;2.40;;;;;;;19.71;59.95;100363.38;5009013;28;21007;-79
2021/09/18 09:45:22;;;;;;;3.47;2.67;;;;;;;20.20;58.37;100359.78;4985002;28;20398;-79
2021/09/18 09:48:01;;;;;;;2.88;2.60;;;;;;;21.22;54.75;100356.13;5006434;28;20757;-79
2021/09/18 09:50:36;;;;;;;2.30;2.20;;;;;;;22.46;50.64;100356.53;5009121;28;20412;-79
2021/09/18 09:53:05;;;;;;;2.08;1.98;;;;;;;23.12;49.22;100355.09;4998923;28;20409;-79
2021/09/18 09:55:38;;;;;;;2.45;2.20;;;;;;;23.37;48.80;100354.19;5011312;28;20405;-79
2021/09/18 09:58:12;;;;;;;2.30;1.80;;;;;;;23.80;46.16;100356.75;4997848;28;20641;-79
2021/09/18 10:00:51;;;;;;;1.77;1.52;;;;;;;24.30;43.15;100362.28;5020650;28;20768;-79
2021/09/18 10:03:21;;;;;;;1.73;1.63;;;;;;;25.27;41.69;100359.81;5009335;28;20412;-78
2021/09/18 10:05:47;;;;;;;2.28;1.90;;;;;;;25.69;40.75;100355.69;5010661;28;20400;-79
2021/09/18 10:08:13;;;;;;;1.95;1.85;;;;;;;25.96;40.75;100358.91;5011035;28;20437;-78
2021/09/18 10:10:40;;;;;;;4.57;1.95;;;;;;;26.39;39.72;100356.25;5007500;28;20495;-78
2021/09/18 10:13:07;;;;;;;3.03;2.27;;;;;;;26.71;39.35;100360.75;5009209;28;20416;-78
2021/09/18 10:15:33;;;;;;;1.95;1.85;;;;;;;27.18;37.82;100360.03;5003810;28;20903;-79
2021/09/18 10:18:01;;;;;;;1.77;1.30;;;;;;;27.59;36.55;100353.97;5005610;28;21034;-79
2021/09/18 10:23:19;;;;;;;1.52;1.42;;;;;;;28.70;34.60;100360.81;5007493;28;20424;-81
2021/09/18 10:25:49;;;;;;;2.40;1.90;;;;;;;28.96;34.13;100358.13;5005489;28;20764;-81
2021/09/18 10:28:21;;;;;;;5.35;1.80;;;;;;;29.22;34.13;100355.41;4995027;28;20393;-81
2021/09/18 10:30:51;;;;;;;1.92;1.63;;;;;;;29.32;33.33;100352.00;4987556;28;20473;-81
2021/09/18 10:33:32;;;;;;;1.67;1.57;;;;;;;29.61;32.81;100355.25;5007251;28;20823;-81
2021/09/18 10:36:06;;;;;;;1.85;1.52;;;;;;;29.84;32.36;100354.06;5013565;28;20550;-82
2021/09/18 10:38:42;;;;;;;1.67;1.60;;;;;;;29.96;31.59;100353.03;5011901;28;20488;-79
2021/09/18 10:41:20;;;;;;;1.90;1.80;;;;;;;30.20;32.35;100346.16;5008416;28;20995;-79
2021/09/18 10:44:00;;;;;;;1.70;1.60;;;;;;;30.42;32.00;100348.09;5009549;28;20809;-79
2021/09/18 10:46:59;;;;;;;2.33;1.70;;;;;;;30.48;31.94;100342.94;5009881;28;20838;-79
2021/09/18 10:49:37;;;;;;;2.38;1.60;;;;;;;30.43;30.88;100351.69;4994189;28;20389;-79
2021/09/18 10:52:22;;;;;;;1.80;1.40;;;;;;;30.51;30.63;100342.19;5007676;28;20413;-77
2021/09/18 10:55:05;;;;;;;1.73;1.70;;;;;;;30.41;30.93;100334.47;4995324;28;20413;-80
2021/09/18 10:57:45;;;;;;;2.10;1.85;;;;;;;30.71;30.46;100335.22;4996753;28;20877;-78
2021/09/18 11:00:19;;;;;;;1.65;1.60;;;;;;;30.66;30.84;100335.59;5014080;28;20396;-79
2021/09/18 11:02:51;;;;;;;1.65;1.50;;;;;;;29.95;31.47;100333.84;5011304;28;20441;-79
2021/09/18 11:05:23;;;;;;;1.73;1.63;;;;;;;29.52;32.54;100335.16;5012473;28;20417;-80
2021/09/18 11:07:50;;;;;;;1.67;1.67;;;;;;;29.17;32.70;100330.59;5009204;28;20512;-79
2021/09/18 11:10:19;;;;;;;2.33;1.60;;;;;;;28.79;33.99;100327.91;5009985;28;20425;-80
2021/09/18 11:13:06;;;;;;;2.00;1.38;;;;;;;28.77;33.07;100333.88;5010097;28;20404;-81
2021/09/18 11:15:50;;;;;;;1.60;1.50;;;;;;;28.74;32.15;100323.47;4985238;28;20404;-80
2021/09/18 11:18:36;;;;;;;1.80;1.70;;;;;;;28.97;32.65;100320.69;5001315;28;20776;-81
2021/09/18 11:21:01;;;;;;;2.95;1.50;;;;;;;29.29;31.87;100319.25;4986295;28;20431;-81
2021/09/18 11:23:45;;;;;;;1.50;1.40;;;;;;;29.53;30.79;100311.66;5013510;28;20884;-81
2021/09/18 11:26:31;;;;;;;1.20;1.20;;;;;;;29.52;31.18;100305.28;5013313;28;20397;-81
2021/09/18 11:29:08;;;;;;;1.60;1.50;;;;;;;29.66;29.84;100307.47;5008727;28;20906;-79